createdAt,value
2022-08-23T00:00:49.795Z,2.15
2022-08-23T00:03:17.242Z,1.40
2022-08-23T00:05:44.145Z,1.35
2022-08-23T00:08:10.765Z,1.63
2022-08-23T00:10:37.303Z,1.80
2022-08-23T00:13:04.058Z,1.52
2022-08-23T00:15:30.602Z,1.65
2022-08-23T00:17:57.319Z,1.75
2022-08-23T00:20:23.950Z,1.75
2022-08-23T00:22:50.527Z,1.55
2022-08-23T00:25:17.812Z,1.70
2022-08-23T00:27:44.923Z,1.67
2022-08-23T00:30:13.482Z,1.67
2022-08-23T00:32:40.767Z,1.90
2022-08-23T00:35:10.011Z,1.92
2022-08-23T00:37:38.060Z,1.58
2022-08-23T00:40:07.561Z,1.85
2022-08-23T00:43:34.995Z,1.77
2022-08-23T00:46:26.291Z,1.83
2022-08-23T00:48:53.477Z,1.88
2022-08-23T00:51:28.130Z,1.77
2022-08-23T00:53:57.602Z,2.05
2022-08-23T00:56:27.822Z,1.80
2022-08-23T00:58:57.891Z,1.60
2022-08-23T01:01:25.318Z,1.42
2022-08-23T01:04:03.953Z,2.00
2022-08-23T01:06:44.104Z,1.80
2022-08-23T01:09:17.947Z,1.70
2022-08-23T01:12:04.647Z,1.63
2022-08-23T01:14:38.752Z,1.45
2022-08-23T01:17:26.594Z,1.92
2022-08-23T01:20:04.881Z,1.83
2022-08-23T01:22:57.370Z,1.70
2022-08-23T01:25:26.553Z,1.80
2022-08-23T01:27:53.605Z,2.22
2022-08-23T01:30:23.621Z,1.92
2022-08-23T01:32:54.818Z,2.10
2022-08-23T01:35:29.473Z,2.50
2022-08-23T01:37:56.019Z,2.00
2022-08-23T01:40:22.877Z,2.42
2022-08-23T01:42:49.554Z,2.58
2022-08-23T01:45:16.399Z,2.83
2022-08-23T01:47:43.026Z,2.10
2022-08-23T01:50:11.331Z,2.20
2022-08-23T01:52:47.288Z,2.10
2022-08-23T01:55:14.658Z,2.47
2022-08-23T01:57:45.463Z,2.20
2022-08-23T02:00:15.308Z,2.47
2022-08-23T02:02:41.883Z,2.35
2022-08-23T02:05:09.536Z,2.40
2022-08-23T02:07:36.182Z,2.70
2022-08-23T02:10:02.925Z,2.35
2022-08-23T02:12:29.930Z,2.75
2022-08-23T02:14:56.820Z,2.30
2022-08-23T02:17:23.364Z,2.28
2022-08-23T02:19:50.014Z,2.15
2022-08-23T02:22:17.964Z,2.30
2022-08-23T02:24:46.404Z,1.95
2022-08-23T02:27:15.400Z,2.78
2022-08-23T02:29:45.818Z,2.30
2022-08-23T02:32:14.708Z,1.98
2022-08-23T02:34:43.381Z,2.20
2022-08-23T02:37:12.583Z,2.25
2022-08-23T02:39:40.907Z,1.88
2022-08-23T02:42:11.672Z,2.03
2022-08-23T02:44:39.757Z,2.10
2022-08-23T02:47:08.916Z,2.00
2022-08-23T02:49:35.995Z,2.28
2022-08-23T02:52:03.533Z,2.15
2022-08-23T02:54:30.403Z,2.10
2022-08-23T02:56:56.951Z,1.65
2022-08-23T02:59:23.567Z,2.17
2022-08-23T03:01:51.441Z,1.92
2022-08-23T03:04:18.029Z,2.55
2022-08-23T03:06:45.432Z,1.95
2022-08-23T03:09:11.984Z,2.40
2022-08-23T03:11:44.883Z,2.03
2022-08-23T03:14:11.572Z,2.35
2022-08-23T03:16:38.222Z,2.50
2022-08-23T03:19:04.778Z,1.90
2022-08-23T03:21:32.495Z,2.35
2022-08-23T03:23:59.667Z,2.05
2022-08-23T03:26:26.223Z,1.73
2022-08-23T03:28:53.393Z,1.67
2022-08-23T03:31:23.393Z,1.90
2022-08-23T03:33:50.107Z,2.00
2022-08-23T03:36:16.641Z,1.98
2022-08-23T03:38:43.296Z,1.92
2022-08-23T03:41:10.335Z,1.98
2022-08-23T03:43:37.686Z,1.90
2022-08-23T03:46:06.002Z,2.00
2022-08-23T03:48:32.959Z,1.90
2022-08-23T03:51:00.184Z,1.88
2022-08-23T03:53:26.827Z,2.53
2022-08-23T03:55:55.356Z,2.08
2022-08-23T03:58:23.513Z,2.30
2022-08-23T04:00:50.059Z,2.28
2022-08-23T04:03:16.678Z,1.95
2022-08-23T04:05:43.640Z,2.65
2022-08-23T04:08:11.210Z,2.40
2022-08-23T04:10:39.391Z,2.47
2022-08-23T04:13:08.393Z,2.25
2022-08-23T04:15:35.567Z,1.95
2022-08-23T04:18:02.759Z,2.17
2022-08-23T04:20:29.990Z,2.55
2022-08-23T04:22:56.806Z,2.13
2022-08-23T04:25:32.880Z,2.40
2022-08-23T04:28:02.203Z,2.22
2022-08-23T04:30:29.164Z,2.20
2022-08-23T04:32:55.763Z,2.08
2022-08-23T04:35:22.483Z,2.28
2022-08-23T04:37:49.596Z,2.33
2022-08-23T04:40:35.019Z,2.05
2022-08-23T04:43:02.392Z,2.20
2022-08-23T04:45:29.867Z,2.28
2022-08-23T04:47:56.633Z,2.08
2022-08-23T04:50:23.425Z,2.58
2022-08-23T04:52:50.119Z,2.15
2022-08-23T04:55:16.785Z,2.47
2022-08-23T04:57:43.517Z,2.17
2022-08-23T05:00:13.513Z,2.40
2022-08-23T05:02:40.586Z,2.03
2022-08-23T05:05:08.335Z,2.25
2022-08-23T05:07:42.407Z,2.00
2022-08-23T05:10:13.116Z,1.92
2022-08-23T05:12:40.056Z,2.17
2022-08-23T05:15:09.499Z,2.05
2022-08-23T05:17:37.043Z,2.25
2022-08-23T05:20:05.515Z,2.72
2022-08-23T05:22:41.002Z,1.83
2022-08-23T05:25:08.342Z,2.20
2022-08-23T05:27:35.811Z,2.03
2022-08-23T05:30:02.926Z,2.00
2022-08-23T05:32:33.211Z,1.80
2022-08-23T05:35:00.320Z,2.40
2022-08-23T05:37:26.770Z,2.20
2022-08-23T05:39:53.431Z,2.17
2022-08-23T05:42:20.051Z,1.90
2022-08-23T05:44:46.711Z,2.20
2022-08-23T05:47:16.244Z,1.90
2022-08-23T05:49:43.103Z,2.35
2022-08-23T05:52:12.151Z,1.98
2022-08-23T05:54:39.707Z,2.08
2022-08-23T05:57:06.416Z,2.15
2022-08-23T05:59:33.201Z,2.22
2022-08-23T06:01:59.788Z,1.75
2022-08-23T06:04:26.318Z,2.28
2022-08-23T06:06:56.456Z,1.85
2022-08-23T06:09:23.440Z,2.25
2022-08-23T06:11:50.447Z,1.90
2022-08-23T06:14:17.351Z,2.20
2022-08-23T06:16:46.736Z,2.00
2022-08-23T06:19:14.304Z,2.30
2022-08-23T06:21:41.943Z,2.10
2022-08-23T06:24:09.027Z,1.98
2022-08-23T06:26:39.479Z,2.85
2022-08-23T06:29:11.271Z,2.10
2022-08-23T06:31:47.752Z,2.30
2022-08-23T06:34:33.420Z,2.00
2022-08-23T06:37:04.851Z,2.22
2022-08-23T06:39:35.554Z,2.17
2022-08-23T06:42:36.468Z,2.20
2022-08-23T06:44:56.868Z,2.42
2022-08-23T06:47:23.753Z,2.10
2022-08-23T06:49:55.365Z,2.22
2022-08-23T06:52:27.536Z,1.90
2022-08-23T06:54:54.523Z,1.85
2022-08-23T06:57:21.180Z,1.80
2022-08-23T06:59:50.017Z,2.08
2022-08-23T07:02:16.837Z,3.00
2022-08-23T07:04:43.524Z,2.15
2022-08-23T07:07:11.965Z,2.50
2022-08-23T07:09:39.722Z,2.60
2022-08-23T07:12:06.682Z,2.70
2022-08-23T07:14:34.000Z,2.35
2022-08-23T07:17:03.559Z,2.72
2022-08-23T07:19:32.884Z,2.20
2022-08-23T07:22:00.444Z,2.72
2022-08-23T07:24:33.037Z,2.22
2022-08-23T07:27:01.428Z,2.40
2022-08-23T07:29:28.714Z,2.20
2022-08-23T07:31:56.880Z,2.30
2022-08-23T07:34:24.896Z,2.38
2022-08-23T07:36:53.416Z,2.55
2022-08-23T07:39:22.341Z,2.35
2022-08-23T07:41:49.883Z,1.90
2022-08-23T07:44:18.232Z,2.15
2022-08-23T07:46:46.368Z,2.33
2022-08-23T07:49:13.511Z,2.17
2022-08-23T07:51:43.060Z,2.63
2022-08-23T07:54:10.733Z,2.30
2022-08-23T07:56:37.650Z,2.30
2022-08-23T07:59:08.255Z,2.05
2022-08-23T08:01:35.683Z,2.03
2022-08-23T08:04:03.977Z,2.30
2022-08-23T08:06:40.380Z,2.50
2022-08-23T08:09:08.647Z,1.83
2022-08-23T08:11:36.291Z,1.90
2022-08-23T08:14:07.841Z,2.20
2022-08-23T08:16:43.404Z,2.20
2022-08-23T08:19:12.718Z,2.17
2022-08-23T08:21:42.372Z,2.33
2022-08-23T08:24:12.778Z,2.20
2022-08-23T08:26:41.134Z,1.85
2022-08-23T08:29:11.966Z,1.90
2022-08-23T08:31:40.836Z,2.07
2022-08-23T08:34:08.442Z,1.75
2022-08-23T08:36:54.018Z,1.70
2022-08-23T08:39:24.415Z,1.50
2022-08-23T08:42:19.652Z,1.60
2022-08-23T08:44:59.048Z,1.40
2022-08-23T08:47:31.312Z,1.45
2022-08-23T08:50:06.617Z,2.05
2022-08-23T08:52:38.618Z,1.70
2022-08-23T08:55:08.763Z,1.40
2022-08-23T08:57:44.531Z,1.98
2022-08-23T09:00:19.521Z,1.30
2022-08-23T09:02:46.626Z,1.50
2022-08-23T09:05:20.974Z,1.30
2022-08-23T09:08:00.873Z,1.55
2022-08-23T09:10:58.742Z,1.40
2022-08-23T09:14:07.490Z,1.40
2022-08-23T09:16:49.152Z,1.55
2022-08-23T09:19:17.570Z,1.30
2022-08-23T09:21:46.362Z,1.10
2022-08-23T09:24:13.761Z,1.10
2022-08-23T09:26:41.092Z,1.20
2022-08-23T09:29:17.374Z,1.27
2022-08-23T09:31:52.666Z,1.13
2022-08-23T09:34:37.122Z,1.13
2022-08-23T09:37:16.195Z,1.45
2022-08-23T09:39:46.050Z,1.40
2022-08-23T09:42:36.026Z,1.40
2022-08-23T09:45:14.065Z,1.30
2022-08-23T09:47:44.834Z,1.17
2022-08-23T09:50:29.140Z,1.17
2022-08-23T09:53:08.775Z,1.15
2022-08-23T09:55:39.196Z,1.20
2022-08-23T09:58:37.293Z,1.08
2022-08-23T10:01:13.648Z,1.40
2022-08-23T10:03:42.792Z,1.20
2022-08-23T10:06:12.209Z,1.50
2022-08-23T10:08:53.342Z,1.50
2022-08-23T10:11:31.142Z,1.23
2022-08-23T10:13:57.877Z,1.38
2022-08-23T10:16:41.710Z,1.17
2022-08-23T10:19:34.373Z,1.20
2022-08-23T10:22:26.896Z,1.20
2022-08-23T10:25:22.853Z,1.33
2022-08-23T10:28:41.737Z,1.20
2022-08-23T10:31:27.238Z,1.17
2022-08-23T10:34:22.353Z,1.42
2022-08-23T10:37:12.140Z,1.13
2022-08-23T10:39:49.665Z,1.10
2022-08-23T10:42:21.855Z,1.10
2022-08-23T10:44:55.735Z,1.17
2022-08-23T10:47:44.630Z,1.52
2022-08-23T10:50:14.459Z,1.38
2022-08-23T10:52:51.487Z,1.23
2022-08-23T10:55:35.973Z,1.27
2022-08-23T10:58:05.999Z,1.33
2022-08-23T11:00:34.967Z,1.63
2022-08-23T11:03:31.997Z,1.42
2022-08-23T11:06:26.345Z,1.20
2022-08-23T11:09:17.434Z,1.80
2022-08-23T11:12:02.641Z,1.47
2022-08-23T11:14:32.111Z,1.20
2022-08-23T11:17:09.419Z,1.23
2022-08-23T11:20:08.447Z,1.40
2022-08-23T11:22:57.515Z,1.15
2022-08-23T11:25:30.170Z,1.08
2022-08-23T11:28:28.449Z,1.30
2022-08-23T11:30:57.546Z,1.20
2022-08-23T11:33:27.601Z,1.20
2022-08-23T11:36:16.610Z,1.30
2022-08-23T11:38:49.297Z,1.30
2022-08-23T11:41:30.482Z,1.13
2022-08-23T11:43:56.977Z,0.85
2022-08-23T11:46:24.200Z,0.75
2022-08-23T11:49:11.415Z,0.80
2022-08-23T11:51:56.024Z,1.10
2022-08-23T11:54:46.995Z,1.10
2022-08-23T11:57:55.089Z,1.03
2022-08-23T12:00:29.485Z,1.33
2022-08-23T12:03:02.450Z,1.38
2022-08-23T12:05:35.266Z,0.90
2022-08-23T12:08:02.514Z,1.75
2022-08-23T12:10:38.092Z,1.20
2022-08-23T12:13:30.271Z,1.00
2022-08-23T12:16:17.452Z,1.10
2022-08-23T12:18:47.954Z,1.33
2022-08-23T12:21:31.688Z,0.80
2022-08-23T12:24:03.291Z,1.00
2022-08-23T12:29:50.081Z,0.95
2022-08-23T12:32:20.225Z,1.20
2022-08-23T12:35:05.082Z,1.20
2022-08-23T12:37:54.915Z,1.20
2022-08-23T12:40:44.213Z,0.93
2022-08-23T12:43:20.814Z,0.90
2022-08-23T12:45:55.218Z,1.02
2022-08-23T12:48:25.431Z,0.90
2022-08-23T12:51:01.298Z,1.60
2022-08-23T12:53:27.793Z,1.00
2022-08-23T12:56:01.858Z,1.00
2022-08-23T12:58:33.734Z,1.00
2022-08-23T13:01:05.177Z,0.95
2022-08-23T13:03:36.810Z,1.00
2022-08-23T13:06:10.716Z,1.17
2022-08-23T13:08:53.733Z,0.80
2022-08-23T13:11:26.900Z,0.80
2022-08-23T13:13:55.459Z,1.08
2022-08-23T13:16:34.033Z,1.35
2022-08-23T13:19:30.576Z,1.20
2022-08-23T13:22:19.311Z,0.88
2022-08-23T13:27:57.544Z,1.20
2022-08-23T13:30:31.071Z,1.02
2022-08-23T13:33:09.672Z,1.08
2022-08-23T13:35:47.224Z,0.70
2022-08-23T13:38:30.247Z,1.02
2022-08-23T13:41:27.620Z,0.90
2022-08-23T13:43:54.997Z,0.77
2022-08-23T13:46:31.987Z,1.00
2022-08-23T13:49:16.499Z,1.00
2022-08-23T13:52:41.705Z,0.80
2022-08-23T13:54:53.117Z,0.93
2022-08-23T13:57:21.669Z,0.88
2022-08-23T13:59:54.324Z,1.70
2022-08-23T14:02:23.137Z,1.10
2022-08-23T14:04:50.806Z,1.00
2022-08-23T14:07:17.696Z,1.00
2022-08-23T14:09:44.468Z,0.93
2022-08-23T14:12:24.320Z,1.13
2022-08-23T14:14:55.895Z,0.82
2022-08-23T14:17:22.605Z,0.95
2022-08-23T14:22:36.380Z,0.60
2022-08-23T14:25:03.690Z,0.80
2022-08-23T14:27:30.268Z,0.82
2022-08-23T14:29:56.868Z,1.08
2022-08-23T14:32:23.584Z,0.75
2022-08-23T14:34:52.396Z,1.00
2022-08-23T14:38:02.802Z,0.98
2022-08-23T14:40:06.218Z,0.60
2022-08-23T14:42:33.001Z,1.00
2022-08-23T14:45:00.030Z,0.73
2022-08-23T14:47:26.929Z,0.85
2022-08-23T14:49:54.183Z,0.60
2022-08-23T14:52:21.499Z,0.80
2022-08-23T14:54:49.504Z,0.63
2022-08-23T14:57:16.536Z,0.90
2022-08-23T14:59:43.104Z,1.13
2022-08-23T15:02:12.136Z,0.90
2022-08-23T15:04:39.661Z,1.10
2022-08-23T15:07:17.563Z,0.93
2022-08-23T15:09:47.352Z,0.82
2022-08-23T15:15:00.550Z,0.70
2022-08-23T15:17:31.209Z,1.00
2022-08-23T15:19:58.220Z,0.63
2022-08-23T15:22:26.216Z,0.88
2022-08-23T15:24:52.983Z,0.93
2022-08-23T15:27:20.973Z,0.70
2022-08-23T15:29:47.519Z,0.80
2022-08-23T15:32:14.114Z,0.90
2022-08-23T15:34:48.767Z,0.80
2022-08-23T15:37:15.480Z,0.85
2022-08-23T15:39:42.437Z,0.52
2022-08-23T15:42:09.275Z,0.65
2022-08-23T15:44:35.857Z,1.02
2022-08-23T15:47:05.071Z,0.90
2022-08-23T15:49:36.198Z,0.80
2022-08-23T15:52:04.542Z,0.90
2022-08-23T15:54:31.350Z,0.93
2022-08-23T15:56:58.081Z,0.60
2022-08-23T15:59:25.215Z,0.70
2022-08-23T16:01:51.785Z,0.70
2022-08-23T16:04:18.639Z,0.77
2022-08-23T16:06:45.265Z,0.90
2022-08-23T16:09:21.126Z,0.80
2022-08-23T16:11:48.108Z,1.63
2022-08-23T16:14:14.710Z,0.90
2022-08-23T16:16:42.253Z,0.82
2022-08-23T16:19:09.998Z,0.80
2022-08-23T16:21:36.830Z,0.88
2022-08-23T16:24:04.135Z,1.05
2022-08-23T16:26:34.862Z,0.95
2022-08-23T16:31:38.262Z,0.82
2022-08-23T16:34:09.371Z,0.60
2022-08-23T16:36:36.119Z,0.70
2022-08-23T16:39:03.285Z,0.77
2022-08-23T16:41:29.863Z,1.10
2022-08-23T16:43:56.425Z,1.00
2022-08-23T16:46:24.417Z,1.67
2022-08-23T16:48:51.281Z,1.70
2022-08-23T16:51:18.348Z,2.58
2022-08-23T16:53:44.888Z,1.77
2022-08-23T16:56:29.513Z,1.00
2022-08-23T16:58:56.870Z,1.10
2022-08-23T17:01:23.843Z,0.98
2022-08-23T17:03:50.886Z,1.10
2022-08-23T17:06:18.191Z,0.90
2022-08-23T17:08:45.211Z,0.75
2022-08-23T17:11:15.101Z,0.90
2022-08-23T17:13:41.780Z,0.70
2022-08-23T17:16:10.721Z,1.02
2022-08-23T17:18:38.547Z,1.58
2022-08-23T17:21:05.592Z,0.70
2022-08-23T17:23:32.170Z,1.00
2022-08-23T17:25:59.632Z,0.57
2022-08-23T17:28:26.359Z,0.50
2022-08-23T17:30:54.182Z,0.60
2022-08-23T17:33:22.307Z,0.70
2022-08-23T17:35:48.864Z,0.80
2022-08-23T17:38:15.573Z,0.50
2022-08-23T17:40:42.251Z,0.57
2022-08-23T17:43:09.192Z,1.80
2022-08-23T17:45:45.537Z,5.45
2022-08-23T17:48:13.490Z,0.80
2022-08-23T17:50:43.634Z,0.90
2022-08-23T17:53:11.334Z,0.50
2022-08-23T17:55:39.284Z,0.50
2022-08-23T17:58:08.214Z,0.57
2022-08-23T18:00:38.893Z,1.00
2022-08-23T18:03:05.813Z,3.53
2022-08-23T18:05:34.036Z,1.60
2022-08-23T18:08:01.261Z,1.27
2022-08-23T18:10:29.864Z,0.90
2022-08-23T18:12:57.263Z,1.90
2022-08-23T18:15:24.463Z,1.02
2022-08-23T18:17:58.173Z,0.50
2022-08-23T18:20:26.671Z,0.70
2022-08-23T18:22:55.156Z,0.82
2022-08-23T18:25:22.168Z,1.20
2022-08-23T18:28:08.348Z,0.60
2022-08-23T18:30:40.261Z,0.82
2022-08-23T18:33:07.258Z,0.82
2022-08-23T18:35:34.562Z,0.70
2022-08-23T18:38:01.335Z,1.00
2022-08-23T18:40:29.523Z,0.88
2022-08-23T18:42:57.294Z,0.90
2022-08-23T18:45:24.663Z,0.73
2022-08-23T18:47:51.306Z,0.52
2022-08-23T18:50:18.918Z,0.82
2022-08-23T18:52:45.661Z,0.55
2022-08-23T18:55:12.273Z,0.70
2022-08-23T18:57:39.103Z,0.50
2022-08-23T19:00:09.626Z,1.45
2022-08-23T19:02:36.355Z,1.25
2022-08-23T19:05:03.735Z,0.77
2022-08-23T19:07:30.376Z,1.25
2022-08-23T19:09:56.960Z,0.88
2022-08-23T19:12:23.715Z,1.73
2022-08-23T19:14:50.384Z,1.00
2022-08-23T19:17:17.019Z,1.45
2022-08-23T19:19:43.555Z,2.03
2022-08-23T19:22:10.272Z,0.73
2022-08-23T19:24:36.890Z,0.80
2022-08-23T19:27:03.564Z,0.63
2022-08-23T19:29:31.782Z,1.38
2022-08-23T19:31:58.708Z,0.95
2022-08-23T19:34:25.358Z,1.10
2022-08-23T19:37:00.638Z,0.60
2022-08-23T19:39:29.404Z,0.85
2022-08-23T19:41:56.037Z,1.20
2022-08-23T19:44:22.744Z,0.90
2022-08-23T19:46:49.734Z,1.20
2022-08-23T19:49:17.096Z,0.75
2022-08-23T19:51:44.660Z,0.80
2022-08-23T19:54:12.819Z,0.90
2022-08-23T19:56:39.524Z,0.73
2022-08-23T19:59:08.897Z,0.73
2022-08-23T20:01:36.364Z,0.90
2022-08-23T20:04:05.033Z,1.08
2022-08-23T20:06:32.569Z,0.90
2022-08-23T20:08:59.276Z,1.15
2022-08-23T20:11:27.881Z,1.08
2022-08-23T20:13:56.597Z,0.70
2022-08-23T20:16:23.954Z,0.70
2022-08-23T20:18:51.526Z,0.98
2022-08-23T20:21:18.235Z,0.90
2022-08-23T20:24:05.951Z,1.30
2022-08-23T20:26:42.547Z,1.30
2022-08-23T20:29:12.655Z,0.82
2022-08-23T20:31:54.924Z,0.82
2022-08-23T20:34:22.278Z,1.00
2022-08-23T20:36:55.803Z,1.05
2022-08-23T20:39:24.184Z,0.82
2022-08-23T20:41:52.194Z,0.93
2022-08-23T20:44:19.721Z,1.00
2022-08-23T20:46:50.695Z,1.27
2022-08-23T20:49:20.011Z,1.10
2022-08-23T20:51:46.634Z,1.02
2022-08-23T20:54:14.457Z,0.85
2022-08-23T20:56:41.367Z,1.08
2022-08-23T20:59:08.765Z,1.13
2022-08-23T21:01:35.577Z,1.00
2022-08-23T21:04:02.413Z,0.98
2022-08-23T21:06:36.209Z,1.00
2022-08-23T21:09:04.003Z,1.10
2022-08-23T21:11:30.735Z,1.35
2022-08-23T21:13:58.638Z,1.23
2022-08-23T21:16:26.424Z,1.00
2022-08-23T21:18:55.383Z,1.15
2022-08-23T21:21:25.614Z,1.17
2022-08-23T21:23:53.063Z,1.42
2022-08-23T21:26:21.102Z,1.50
2022-08-23T21:28:48.289Z,1.38
2022-08-23T21:31:17.923Z,1.10
2022-08-23T21:33:45.161Z,1.30
2022-08-23T21:36:14.170Z,1.20
2022-08-23T21:38:41.332Z,0.82
2022-08-23T21:41:11.350Z,1.10
2022-08-23T21:43:38.789Z,1.10
2022-08-23T21:46:07.394Z,1.10
2022-08-23T21:48:34.398Z,1.23
2022-08-23T21:51:01.600Z,0.95
2022-08-23T21:53:28.233Z,1.00
2022-08-23T21:55:54.788Z,1.08
2022-08-23T21:58:21.410Z,1.33
2022-08-23T22:00:48.164Z,1.38
2022-08-23T22:03:14.904Z,1.05
2022-08-23T22:05:43.539Z,1.13
2022-08-23T22:08:14.458Z,1.17
2022-08-23T22:10:48.192Z,1.40
2022-08-23T22:13:24.850Z,1.50
2022-08-23T22:15:51.528Z,1.33
2022-08-23T22:18:18.157Z,1.60
2022-08-23T22:20:44.720Z,1.75
2022-08-23T22:23:11.729Z,2.25
2022-08-23T22:25:38.636Z,1.80
2022-08-23T22:28:05.174Z,1.67
2022-08-23T22:30:32.137Z,1.77
2022-08-23T22:32:58.724Z,1.63
2022-08-23T22:35:25.425Z,2.20
2022-08-23T22:38:12.356Z,1.90
2022-08-23T22:40:39.474Z,2.15
2022-08-23T22:43:06.096Z,2.00
2022-08-23T22:45:32.675Z,2.17
2022-08-23T22:47:59.398Z,2.15
2022-08-23T22:50:25.990Z,2.50
2022-08-23T22:52:52.541Z,2.10
2022-08-23T22:55:19.181Z,2.30
2022-08-23T22:57:45.939Z,2.47
2022-08-23T23:00:12.737Z,2.20
2022-08-23T23:02:39.518Z,2.30
2022-08-23T23:05:07.970Z,2.22
2022-08-23T23:07:53.237Z,2.70
2022-08-23T23:10:20.216Z,2.75
2022-08-23T23:12:46.887Z,2.40
2022-08-23T23:15:13.940Z,2.22
2022-08-23T23:17:40.487Z,2.50
2022-08-23T23:20:26.177Z,2.72
2022-08-23T23:22:52.764Z,2.30
2022-08-23T23:25:20.010Z,2.45
2022-08-23T23:27:46.579Z,2.60
2022-08-23T23:30:13.529Z,2.38
2022-08-23T23:32:40.117Z,2.97
2022-08-23T23:35:10.109Z,2.75
2022-08-23T23:37:37.190Z,2.53
2022-08-23T23:40:05.418Z,2.70
2022-08-23T23:42:32.096Z,2.15
2022-08-23T23:44:58.769Z,2.40
2022-08-23T23:47:25.303Z,2.65
2022-08-23T23:49:52.093Z,2.63
2022-08-23T23:52:18.793Z,2.80
2022-08-23T23:54:46.289Z,2.83
2022-08-23T23:57:13.008Z,2.70
2022-08-23T23:59:41.029Z,2.97
